PHENX84 EGPA-EGPA
Flight info
| Callsign | PHENX84 |
|---|---|
| Flight time | 1h 1m |
| Altitude | 1000 |
| Route | EGPA EGED EGEW EGEP EGEN EGES EGER EGPA |
| Aircraft | DHC6/L-SFG/C |
Departure
| Time | 2026-04-14 12:02 |
|---|---|
| Airport | Kirkwall Airport (EGPA) |
Arrival
| Time | 2026-04-14 13:03 |
|---|---|
| Airport | Kirkwall Airport (EGPA) |
| Time | Latitude | Longitude | Altitude | Speed | Heading |
|---|---|---|---|---|---|
| 2026-04-14 11:55 | 58.95429 | -2.90143 | 46 ft | 0 kts | 214° |
| 2026-04-14 11:57 | 58.95429 | -2.90150 | 47 ft | 1 kts | 291° |
| 2026-04-14 11:57 | 58.95433 | -2.90147 | 47 ft | 0 kts | 56° |
| 2026-04-14 11:58 | 58.95438 | -2.90134 | 47 ft | 4 kts | 52° |
| 2026-04-14 11:58 | 58.95470 | -2.90147 | 50 ft | 8 kts | 350° |
| 2026-04-14 11:59 | 58.95541 | -2.90102 | 50 ft | 14 kts | 345° |
| 2026-04-14 11:59 | 58.95631 | -2.90246 | 49 ft | 16 kts | 319° |
| 2026-04-14 11:59 | 58.95666 | -2.90303 | 48 ft | 0 kts | 320° |
| 2026-04-14 11:59 | 58.95706 | -2.90367 | 46 ft | 14 kts | 321° |
| 2026-04-14 12:00 | 58.95806 | -2.90524 | 42 ft | 23 kts | 321° |
| 2026-04-14 12:00 | 58.95915 | -2.90701 | 37 ft | 18 kts | 321° |
| 2026-04-14 12:00 | 58.96004 | -2.90859 | 31 ft | 7 kts | 302° |
| 2026-04-14 12:00 | 58.96018 | -2.90905 | 31 ft | 0 kts | 299° |
| 2026-04-14 12:01 | 58.96023 | -2.90920 | 31 ft | 5 kts | 314° |
| 2026-04-14 12:01 | 58.96042 | -2.90922 | 30 ft | 1 kts | 60° |
| 2026-04-14 12:01 | 58.96039 | -2.90900 | 31 ft | 0 kts | 139° |
| 2026-04-14 12:01 | 58.95893 | -2.90664 | 38 ft | 70 kts | 141° |
| 2026-04-14 12:02 | 58.95429 | -2.89811 | 360 ft | 106 kts | 124° |
| 2026-04-14 12:02 | 58.95464 | -2.88303 | 794 ft | 124 kts | 65° |
| 2026-04-14 12:02 | 58.96097 | -2.87155 | 1442 ft | 121 kts | 50° |
| 2026-04-14 12:02 | 58.96603 | -2.85879 | 1990 ft | 124 kts | 68° |
| 2026-04-14 12:03 | 58.97256 | -2.84628 | 2303 ft | 150 kts | 28° |
| 2026-04-14 12:03 | 58.98354 | -2.84404 | 2529 ft | 157 kts | 355° |
| 2026-04-14 12:03 | 58.99443 | -2.84585 | 2805 ft | 165 kts | 356° |
| 2026-04-14 12:03 | 59.00595 | -2.84765 | 3156 ft | 158 kts | 353° |
| 2026-04-14 12:04 | 59.01628 | -2.85171 | 3669 ft | 154 kts | 343° |
| 2026-04-14 12:04 | 59.02749 | -2.85739 | 3582 ft | 180 kts | 346° |
| 2026-04-14 12:04 | 59.03812 | -2.86160 | 3955 ft | 141 kts | 351° |
| 2026-04-14 12:04 | 59.04878 | -2.86447 | 4046 ft | 155 kts | 354° |
| 2026-04-14 12:05 | 59.05967 | -2.86537 | 4170 ft | 162 kts | 3° |
| 2026-04-14 12:05 | 59.07101 | -2.86267 | 4416 ft | 162 kts | 12° |
| 2026-04-14 12:05 | 59.08186 | -2.85843 | 4768 ft | 160 kts | 12° |
| 2026-04-14 12:05 | 59.09373 | -2.85506 | 4650 ft | 180 kts | 6° |
| 2026-04-14 12:06 | 59.10627 | -2.85371 | 4688 ft | 182 kts | 2° |
| 2026-04-14 12:06 | 59.11920 | -2.85333 | 4524 ft | 192 kts | 1° |
| 2026-04-14 12:06 | 59.12994 | -2.85330 | 4562 ft | 147 kts | 1° |
| 2026-04-14 12:06 | 59.13997 | -2.85338 | 4015 ft | 148 kts | 0° |
| 2026-04-14 12:07 | 59.15104 | -2.85351 | 2904 ft | 171 kts | 1° |
| 2026-04-14 12:07 | 59.16261 | -2.85366 | 2565 ft | 149 kts | 1° |
| 2026-04-14 12:07 | 59.17348 | -2.85416 | 1597 ft | 169 kts | 2° |
| 2026-04-14 12:07 | 59.18449 | -2.85501 | 1177 ft | 149 kts | 2° |
| 2026-04-14 12:08 | 59.19376 | -2.85415 | 1010 ft | 109 kts | 13° |
| 2026-04-14 12:08 | 59.20060 | -2.84721 | 571 ft | 118 kts | 54° |
| 2026-04-14 12:08 | 59.20265 | -2.83328 | 524 ft | 106 kts | 104° |
| 2026-04-14 12:08 | 59.20084 | -2.82001 | 557 ft | 99 kts | 112° |
| 2026-04-14 12:09 | 59.19967 | -2.80745 | 678 ft | 91 kts | 105° |
| 2026-04-14 12:09 | 59.19870 | -2.79635 | 861 ft | 76 kts | 113° |
| 2026-04-14 12:09 | 59.19769 | -2.78699 | 589 ft | 74 kts | 99° |
| 2026-04-14 12:09 | 59.19871 | -2.77757 | 394 ft | 65 kts | 90° |
| 2026-04-14 12:10 | 59.19701 | -2.77055 | 228 ft | 61 kts | 152° |
| 2026-04-14 12:10 | 59.19310 | -2.77073 | 27 ft | 46 kts | 167° |
| 2026-04-14 12:10 | 59.19165 | -2.77034 | 14 ft | 0 kts | 179° |
| 2026-04-14 12:10 | 59.19164 | -2.77034 | 14 ft | 0 kts | 179° |
| 2026-04-14 12:13 | 59.19165 | -2.77020 | 14 ft | 7 kts | 12° |
| 2026-04-14 12:14 | 59.19292 | -2.76995 | 14 ft | 21 kts | 359° |
| 2026-04-14 12:14 | 59.19344 | -2.77029 | 12 ft | 7 kts | 265° |
| 2026-04-14 12:14 | 59.19334 | -2.77058 | 12 ft | 0 kts | 178° |
| 2026-04-14 12:15 | 59.19059 | -2.77045 | 41 ft | 78 kts | 180° |
| 2026-04-14 12:15 | 59.18540 | -2.77174 | 634 ft | 93 kts | 207° |
| 2026-04-14 12:15 | 59.18851 | -2.78516 | 799 ft | 156 kts | 349° |
| 2026-04-14 12:15 | 59.19892 | -2.78907 | 1210 ft | 158 kts | 345° |
| 2026-04-14 12:16 | 59.20888 | -2.79986 | 1341 ft | 169 kts | 322° |
| 2026-04-14 12:16 | 59.21834 | -2.81471 | 1325 ft | 179 kts | 319° |
| 2026-04-14 12:16 | 59.22750 | -2.82951 | 1330 ft | 167 kts | 319° |
| 2026-04-14 12:16 | 59.23587 | -2.84254 | 1647 ft | 149 kts | 320° |
| 2026-04-14 12:17 | 59.24421 | -2.85522 | 1495 ft | 151 kts | 320° |
| 2026-04-14 12:17 | 59.25252 | -2.86790 | 1338 ft | 147 kts | 319° |
| 2026-04-14 12:17 | 59.25985 | -2.88042 | 1341 ft | 138 kts | 315° |
| 2026-04-14 12:17 | 59.26694 | -2.89302 | 1293 ft | 137 kts | 313° |
| 2026-04-14 12:18 | 59.27320 | -2.90663 | 1280 ft | 134 kts | 304° |
| 2026-04-14 12:18 | 59.27883 | -2.92098 | 1178 ft | 137 kts | 307° |
| 2026-04-14 12:18 | 59.28584 | -2.93396 | 1132 ft | 137 kts | 320° |
| 2026-04-14 12:18 | 59.29345 | -2.94535 | 1099 ft | 136 kts | 321° |
| 2026-04-14 12:19 | 59.30057 | -2.95634 | 1068 ft | 114 kts | 320° |
| 2026-04-14 12:19 | 59.30727 | -2.96500 | 682 ft | 126 kts | 330° |
| 2026-04-14 12:19 | 59.31504 | -2.97259 | 720 ft | 125 kts | 341° |
| 2026-04-14 12:19 | 59.32318 | -2.97784 | 784 ft | 123 kts | 347° |
| 2026-04-14 12:20 | 59.33160 | -2.98248 | 763 ft | 122 kts | 349° |
| 2026-04-14 12:20 | 59.34035 | -2.98431 | 646 ft | 126 kts | 5° |
| 2026-04-14 12:20 | 59.34748 | -2.98235 | 522 ft | 94 kts | 23° |
| 2026-04-14 12:20 | 59.35312 | -2.97704 | 443 ft | 78 kts | 45° |
| 2026-04-14 12:21 | 59.35533 | -2.96919 | 347 ft | 60 kts | 121° |
| 2026-04-14 12:21 | 59.35339 | -2.96138 | 218 ft | 80 kts | 104° |
| 2026-04-14 12:21 | 59.35313 | -2.95087 | 470 ft | 63 kts | 95° |
| 2026-04-14 12:21 | 59.35497 | -2.94019 | 450 ft | 115 kts | 65° |
| 2026-04-14 12:22 | 59.36238 | -2.93151 | 780 ft | 142 kts | 2° |
| 2026-04-14 12:22 | 59.36751 | -2.94615 | 825 ft | 138 kts | 250° |
| 2026-04-14 12:22 | 59.36445 | -2.95882 | 625 ft | 86 kts | 210° |
| 2026-04-14 12:22 | 59.35932 | -2.96063 | 301 ft | 70 kts | 157° |
| 2026-04-14 12:23 | 59.35503 | -2.95807 | 109 ft | 62 kts | 146° |
| 2026-04-14 12:23 | 59.35228 | -2.95229 | 39 ft | 56 kts | 133° |
| 2026-04-14 12:23 | 59.35115 | -2.94968 | 30 ft | 0 kts | 132° |
| 2026-04-14 12:23 | 59.35119 | -2.94960 | 30 ft | 1 kts | 7° |
| 2026-04-14 12:24 | 59.35148 | -2.95016 | 30 ft | 13 kts | 310° |
| 2026-04-14 12:24 | 59.35191 | -2.95123 | 29 ft | 0 kts | 281° |
| 2026-04-14 12:24 | 59.35186 | -2.95128 | 29 ft | 2 kts | 153° |
| 2026-04-14 12:24 | 59.35185 | -2.95124 | 29 ft | 0 kts | 134° |
| 2026-04-14 12:25 | 59.35043 | -2.94812 | 50 ft | 72 kts | 132° |
| 2026-04-14 12:25 | 59.34819 | -2.93789 | 393 ft | 93 kts | 96° |
| 2026-04-14 12:25 | 59.34950 | -2.92482 | 466 ft | 103 kts | 83° |
| 2026-04-14 12:26 | 59.34954 | -2.91325 | 410 ft | 72 kts | 98° |
| 2026-04-14 12:26 | 59.35088 | -2.90371 | 162 ft | 81 kts | 70° |
| 2026-04-14 12:26 | 59.35303 | -2.89653 | 71 ft | 25 kts | 84° |
| 2026-04-14 12:26 | 59.35313 | -2.89640 | 68 ft | 2 kts | 273° |
| 2026-04-14 12:27 | 59.35313 | -2.89642 | 68 ft | 0 kts | 273° |
| 2026-04-14 12:27 | 59.35312 | -2.89650 | 69 ft | 6 kts | 259° |
| 2026-04-14 12:27 | 59.35276 | -2.89759 | 95 ft | 7 kts | 229° |
| 2026-04-14 12:27 | 59.35214 | -2.89877 | 90 ft | 17 kts | 216° |
| 2026-04-14 12:28 | 59.35143 | -2.89976 | 89 ft | 2 kts | 266° |
| 2026-04-14 12:28 | 59.35195 | -2.89995 | 86 ft | 22 kts | 5° |
| 2026-04-14 12:28 | 59.35335 | -2.90034 | 74 ft | 8 kts | 352° |
| 2026-04-14 12:28 | 59.35362 | -2.90051 | 70 ft | 3 kts | 303° |
| 2026-04-14 12:29 | 59.35356 | -2.90077 | 78 ft | 0 kts | 188° |
| 2026-04-14 12:29 | 59.35139 | -2.90023 | 91 ft | 72 kts | 170° |
| 2026-04-14 12:29 | 59.34535 | -2.89835 | 379 ft | 101 kts | 156° |
| 2026-04-14 12:30 | 59.34089 | -2.88677 | 708 ft | 118 kts | 107° |
| 2026-04-14 12:30 | 59.34087 | -2.87058 | 1147 ft | 120 kts | 98° |
| 2026-04-14 12:30 | 59.34020 | -2.85445 | 1583 ft | 121 kts | 104° |
| 2026-04-14 12:30 | 59.33900 | -2.83711 | 1823 ft | 132 kts | 101° |
| 2026-04-14 12:31 | 59.33912 | -2.81923 | 2227 ft | 133 kts | 90° |
| 2026-04-14 12:31 | 59.34053 | -2.80101 | 2519 ft | 140 kts | 85° |
| 2026-04-14 12:31 | 59.34349 | -2.78230 | 2825 ft | 145 kts | 74° |
| 2026-04-14 12:31 | 59.34708 | -2.76431 | 3093 ft | 146 kts | 82° |
| 2026-04-14 12:32 | 59.34964 | -2.74297 | 2716 ft | 163 kts | 82° |
| 2026-04-14 12:32 | 59.35173 | -2.72284 | 2833 ft | 140 kts | 89° |
| 2026-04-14 12:32 | 59.35217 | -2.70354 | 2637 ft | 145 kts | 98° |
| 2026-04-14 12:32 | 59.35102 | -2.68387 | 2432 ft | 144 kts | 105° |
| 2026-04-14 12:33 | 59.35055 | -2.66443 | 2318 ft | 143 kts | 89° |
| 2026-04-14 12:33 | 59.35243 | -2.64534 | 2309 ft | 140 kts | 82° |
| 2026-04-14 12:33 | 59.35516 | -2.62684 | 2239 ft | 144 kts | 77° |
| 2026-04-14 12:33 | 59.35874 | -2.60872 | 2251 ft | 140 kts | 74° |
| 2026-04-14 12:34 | 59.36307 | -2.59147 | 2185 ft | 143 kts | 69° |
| 2026-04-14 12:34 | 59.36776 | -2.57410 | 2061 ft | 146 kts | 71° |
| 2026-04-14 12:34 | 59.37182 | -2.55586 | 1999 ft | 143 kts | 73° |
| 2026-04-14 12:34 | 59.37550 | -2.53824 | 1882 ft | 137 kts | 76° |
| 2026-04-14 12:35 | 59.37739 | -2.52009 | 1566 ft | 136 kts | 92° |
| 2026-04-14 12:35 | 59.37615 | -2.50264 | 1180 ft | 121 kts | 115° |
| 2026-04-14 12:35 | 59.37311 | -2.48866 | 830 ft | 94 kts | 117° |
| 2026-04-14 12:35 | 59.37161 | -2.47715 | 511 ft | 93 kts | 109° |
| 2026-04-14 12:36 | 59.37201 | -2.46403 | 466 ft | 96 kts | 78° |
| 2026-04-14 12:36 | 59.37344 | -2.45342 | 333 ft | 83 kts | 103° |
| 2026-04-14 12:36 | 59.37107 | -2.44450 | 244 ft | 69 kts | 129° |
| 2026-04-14 12:36 | 59.36850 | -2.43614 | 88 ft | 60 kts | 136° |
| 2026-04-14 12:37 | 59.36663 | -2.43204 | 56 ft | 7 kts | 126° |
| 2026-04-14 12:37 | 59.36658 | -2.43189 | 60 ft | 1 kts | 124° |
| 2026-04-14 12:37 | 59.36659 | -2.43178 | 60 ft | 5 kts | 60° |
| 2026-04-14 12:37 | 59.36716 | -2.43160 | 59 ft | 2 kts | 310° |
| 2026-04-14 12:38 | 59.36830 | -2.43401 | 53 ft | 10 kts | 303° |
| 2026-04-14 12:38 | 59.36825 | -2.43461 | 51 ft | 3 kts | 231° |
| 2026-04-14 12:38 | 59.36805 | -2.43474 | 48 ft | 1 kts | 142° |
| 2026-04-14 12:39 | 59.36805 | -2.43473 | 48 ft | 1 kts | 139° |
| 2026-04-14 12:39 | 59.36624 | -2.43057 | 96 ft | 61 kts | 125° |
| 2026-04-14 12:39 | 59.36400 | -2.42430 | 181 ft | 51 kts | 148° |
| 2026-04-14 12:40 | 59.36037 | -2.42582 | 177 ft | 67 kts | 208° |
| 2026-04-14 12:40 | 59.35668 | -2.43172 | 151 ft | 71 kts | 200° |
| 2026-04-14 12:40 | 59.35401 | -2.43522 | 151 ft | 71 kts | 206° |
| 2026-04-14 12:40 | 59.34609 | -2.44068 | 1264 ft | 107 kts | 189° |
| 2026-04-14 12:41 | 59.33896 | -2.44544 | 1751 ft | 122 kts | 200° |
| 2026-04-14 12:41 | 59.33143 | -2.45458 | 1966 ft | 135 kts | 211° |
| 2026-04-14 12:41 | 59.32450 | -2.46610 | 2288 ft | 122 kts | 211° |
| 2026-04-14 12:41 | 59.31745 | -2.47625 | 2317 ft | 130 kts | 215° |
| 2026-04-14 12:42 | 59.31180 | -2.49163 | 1997 ft | 153 kts | 239° |
| 2026-04-14 12:42 | 59.30943 | -2.50429 | 1959 ft | 146 kts | 243° |
| 2026-04-14 12:42 | 59.30405 | -2.52722 | 2061 ft | 126 kts | 233° |
| 2026-04-14 12:42 | 59.30046 | -2.54184 | 2059 ft | 124 kts | 244° |
| 2026-04-14 12:43 | 59.29777 | -2.55838 | 1817 ft | 126 kts | 241° |
| 2026-04-14 12:43 | 59.29282 | -2.57021 | 1652 ft | 96 kts | 215° |
| 2026-04-14 12:43 | 59.28803 | -2.57927 | 1086 ft | 92 kts | 211° |
| 2026-04-14 12:43 | 59.28282 | -2.58509 | 738 ft | 93 kts | 192° |
| 2026-04-14 12:44 | 59.27675 | -2.58530 | 746 ft | 91 kts | 178° |
| 2026-04-14 12:44 | 59.27018 | -2.58727 | 699 ft | 90 kts | 174° |
| 2026-04-14 12:44 | 59.26514 | -2.58582 | 488 ft | 66 kts | 167° |
| 2026-04-14 12:45 | 59.25631 | -2.58014 | 162 ft | 60 kts | 157° |
| 2026-04-14 12:45 | 59.25269 | -2.57715 | 68 ft | 54 kts | 157° |
| 2026-04-14 12:45 | 59.25050 | -2.57541 | 44 ft | 0 kts | 159° |
| 2026-04-14 12:46 | 59.25049 | -2.57539 | 44 ft | 1 kts | 136° |
| 2026-04-14 12:46 | 59.25050 | -2.57529 | 44 ft | 0 kts | 41° |
| 2026-04-14 12:46 | 59.25055 | -2.57525 | 44 ft | 0 kts | 20° |
| 2026-04-14 12:47 | 59.25061 | -2.57525 | 44 ft | 1 kts | 350° |
| 2026-04-14 12:47 | 59.25083 | -2.57538 | 46 ft | 9 kts | 342° |
| 2026-04-14 12:47 | 59.25180 | -2.57604 | 56 ft | 15 kts | 340° |
| 2026-04-14 12:47 | 59.25199 | -2.57639 | 56 ft | 1 kts | 243° |
| 2026-04-14 12:48 | 59.25194 | -2.57638 | 55 ft | 0 kts | 160° |
| 2026-04-14 12:48 | 59.25146 | -2.57602 | 51 ft | 38 kts | 158° |
| 2026-04-14 12:48 | 59.24636 | -2.57333 | 197 ft | 103 kts | 178° |
| 2026-04-14 12:49 | 59.23863 | -2.57808 | 528 ft | 123 kts | 194° |
| 2026-04-14 12:49 | 59.23058 | -2.58408 | 1052 ft | 129 kts | 195° |
| 2026-04-14 12:49 | 59.22163 | -2.59096 | 1217 ft | 147 kts | 195° |
| 2026-04-14 12:49 | 59.21231 | -2.59778 | 1649 ft | 136 kts | 195° |
| 2026-04-14 12:50 | 59.20343 | -2.60381 | 1879 ft | 134 kts | 194° |
| 2026-04-14 12:50 | 59.18681 | -2.61487 | 1326 ft | 119 kts | 196° |
| 2026-04-14 12:50 | 59.18015 | -2.62131 | 1095 ft | 85 kts | 199° |
| 2026-04-14 12:51 | 59.17558 | -2.62615 | 800 ft | 69 kts | 195° |
| 2026-04-14 12:51 | 59.17149 | -2.62999 | 465 ft | 65 kts | 189° |
| 2026-04-14 12:51 | 59.16723 | -2.63348 | 310 ft | 61 kts | 192° |
| 2026-04-14 12:51 | 59.16319 | -2.63657 | 146 ft | 63 kts | 188° |
| 2026-04-14 12:52 | 59.15923 | -2.63927 | 75 ft | 59 kts | 185° |
| 2026-04-14 12:52 | 59.15548 | -2.64156 | 35 ft | 48 kts | 184° |
| 2026-04-14 12:52 | 59.15463 | -2.64195 | 36 ft | 13 kts | 200° |
| 2026-04-14 12:52 | 59.15406 | -2.64087 | 45 ft | 0 kts | 42° |
| 2026-04-14 12:53 | 59.15426 | -2.64067 | 45 ft | 6 kts | 20° |
| 2026-04-14 12:53 | 59.15461 | -2.64044 | 41 ft | 11 kts | 13° |
| 2026-04-14 12:53 | 59.15515 | -2.64017 | 39 ft | 5 kts | 15° |
| 2026-04-14 12:53 | 59.15553 | -2.63991 | 38 ft | 5 kts | 24° |
| 2026-04-14 12:54 | 59.15562 | -2.63985 | 40 ft | 0 kts | 13° |
| 2026-04-14 12:54 | 59.15602 | -2.63971 | 43 ft | 9 kts | 2° |
| 2026-04-14 12:54 | 59.15685 | -2.63963 | 25 ft | 9 kts | 352° |
| 2026-04-14 12:54 | 59.15710 | -2.63981 | 26 ft | 0 kts | 310° |
| 2026-04-14 12:55 | 59.15722 | -2.64021 | 27 ft | 14 kts | 284° |
| 2026-04-14 12:55 | 59.15713 | -2.64040 | 27 ft | 3 kts | 168° |
| 2026-04-14 12:55 | 59.15521 | -2.64160 | 39 ft | 66 kts | 198° |
| 2026-04-14 12:55 | 59.15038 | -2.64970 | 151 ft | 116 kts | 218° |
| 2026-04-14 12:56 | 59.14636 | -2.65703 | 432 ft | 116 kts | 214° |
| 2026-04-14 12:56 | 59.14021 | -2.66619 | 1000 ft | 114 kts | 208° |
| 2026-04-14 12:56 | 59.13340 | -2.67558 | 1359 ft | 122 kts | 207° |
| 2026-04-14 12:56 | 59.12634 | -2.68603 | 1625 ft | 132 kts | 212° |
| 2026-04-14 12:57 | 59.11936 | -2.69710 | 2041 ft | 128 kts | 212° |
| 2026-04-14 12:57 | 59.11184 | -2.70890 | 2076 ft | 144 kts | 212° |
| 2026-04-14 12:57 | 59.10413 | -2.72039 | 2163 ft | 141 kts | 210° |
| 2026-04-14 12:57 | 59.09551 | -2.73104 | 1801 ft | 151 kts | 205° |
| 2026-04-14 12:58 | 59.08661 | -2.74049 | 1674 ft | 135 kts | 202° |
| 2026-04-14 12:58 | 59.07824 | -2.74828 | 1276 ft | 136 kts | 202° |
| 2026-04-14 12:58 | 59.07043 | -2.75805 | 1055 ft | 128 kts | 208° |
| 2026-04-14 12:58 | 59.06357 | -2.76761 | 1029 ft | 115 kts | 206° |
| 2026-04-14 12:59 | 59.05651 | -2.77568 | 855 ft | 129 kts | 202° |
| 2026-04-14 12:59 | 59.04855 | -2.78458 | 1000 ft | 130 kts | 205° |
| 2026-04-14 12:59 | 59.04073 | -2.79326 | 1139 ft | 129 kts | 203° |
| 2026-04-14 12:59 | 59.03323 | -2.80241 | 1232 ft | 124 kts | 208° |
| 2026-04-14 13:00 | 59.02614 | -2.81117 | 1211 ft | 125 kts | 206° |
| 2026-04-14 13:00 | 59.01913 | -2.82133 | 1192 ft | 125 kts | 213° |
| 2026-04-14 13:00 | 59.01282 | -2.83245 | 1153 ft | 123 kts | 214° |
| 2026-04-14 13:00 | 59.00646 | -2.84349 | 908 ft | 129 kts | 218° |
| 2026-04-14 13:01 | 59.00092 | -2.85767 | 713 ft | 132 kts | 235° |
| 2026-04-14 13:01 | 58.99714 | -2.87351 | 689 ft | 123 kts | 239° |
| 2026-04-14 13:01 | 58.99301 | -2.88648 | 635 ft | 113 kts | 219° |
| 2026-04-14 13:01 | 58.98889 | -2.89940 | 626 ft | 106 kts | 240° |
| 2026-04-14 13:02 | 58.98790 | -2.91203 | 486 ft | 92 kts | 260° |
| 2026-04-14 13:02 | 58.98730 | -2.92306 | 590 ft | 74 kts | 235° |
| 2026-04-14 13:02 | 58.98403 | -2.92810 | 586 ft | 55 kts | 172° |
| 2026-04-14 13:02 | 58.98022 | -2.92630 | 516 ft | 59 kts | 176° |
| 2026-04-14 13:03 | 58.97618 | -2.92685 | 463 ft | 57 kts | 166° |
| 2026-04-14 13:03 | 58.97256 | -2.92508 | 457 ft | 49 kts | 156° |
| 2026-04-14 13:03 | 58.96927 | -2.92211 | 403 ft | 52 kts | 153° |
| 2026-04-14 13:03 | 58.96634 | -2.91830 | 255 ft | 52 kts | 142° |
| 2026-04-14 13:04 | 58.96348 | -2.91393 | 115 ft | 55 kts | 141° |
| 2026-04-14 13:04 | 58.96067 | -2.90949 | 55 ft | 47 kts | 143° |
| 2026-04-14 13:04 | 58.95898 | -2.90682 | 37 ft | 6 kts | 144° |
| 2026-04-14 13:04 | 58.95843 | -2.90632 | 40 ft | 0 kts | 143° |
| 2026-04-14 13:05 | 58.95843 | -2.90631 | 40 ft | 0 kts | 143° |
| 2026-04-14 13:05 | 58.95842 | -2.90630 | 40 ft | 0 kts | 146° |
| 2026-04-14 13:06 | 58.95841 | -2.90630 | 40 ft | 0 kts | 146° |
| 2026-04-14 13:07 | 58.95841 | -2.90629 | 40 ft | 0 kts | 145° |
| 2026-04-14 13:07 | 58.95838 | -2.90625 | 40 ft | 0 kts | 145° |
| 2026-04-14 13:07 | 58.95838 | -2.90624 | 40 ft | 0 kts | 145° |
| 2026-04-14 13:07 | 58.95828 | -2.90608 | 41 ft | 3 kts | 139° |
| 2026-04-14 13:08 | 58.95804 | -2.90566 | 42 ft | 5 kts | 133° |
| 2026-04-14 13:08 | 58.95776 | -2.90509 | 43 ft | 7 kts | 135° |
| 2026-04-14 13:08 | 58.95742 | -2.90449 | 44 ft | 7 kts | 138° |
| 2026-04-14 13:08 | 58.95711 | -2.90387 | 45 ft | 7 kts | 138° |
| 2026-04-14 13:09 | 58.95676 | -2.90328 | 47 ft | 7 kts | 139° |
| 2026-04-14 13:09 | 58.95630 | -2.90252 | 49 ft | 17 kts | 139° |
| 2026-04-14 13:09 | 58.95517 | -2.90070 | 50 ft | 9 kts | 141° |
| 2026-04-14 13:09 | 58.95513 | -2.90064 | 48 ft | 15 kts | 140° |
| 2026-04-14 13:10 | 58.95468 | -2.90040 | 49 ft | 2 kts | 299° |
| 2026-04-14 13:10 | 58.95479 | -2.90089 | 50 ft | 4 kts | 277° |
| 2026-04-14 13:10 | 58.95473 | -2.90104 | 50 ft | 0 kts | 217° |
| 2026-04-14 13:10 | 58.95468 | -2.90111 | 50 ft | 5 kts | 218° |
| 2026-04-14 13:11 | 58.95451 | -2.90140 | 49 ft | 0 kts | 219° |